createdAt,value
2022-11-29T00:02:16.980Z,14.80
2022-11-29T00:04:47.155Z,13.20
2022-11-29T00:07:16.767Z,11.43
2022-11-29T00:09:46.265Z,14.83
2022-11-29T00:12:19.784Z,14.30
2022-11-29T00:14:49.702Z,14.93
2022-11-29T00:17:19.426Z,14.10
2022-11-29T00:19:48.718Z,14.10
2022-11-29T00:22:18.286Z,13.60
2022-11-29T00:24:47.635Z,12.87
2022-11-29T00:27:17.478Z,13.40
2022-11-29T00:29:46.598Z,12.60
2022-11-29T00:32:16.164Z,12.53
2022-11-29T00:34:45.773Z,13.30
2022-11-29T00:37:14.953Z,12.93
2022-11-29T00:39:47.852Z,13.07
2022-11-29T00:42:17.586Z,12.10
2022-11-29T00:44:47.034Z,12.93
2022-11-29T00:47:16.765Z,12.00
2022-11-29T00:49:47.967Z,12.80
2022-11-29T00:52:17.144Z,12.50
2022-11-29T00:54:46.741Z,12.23
2022-11-29T00:57:15.913Z,11.60
2022-11-29T00:59:46.062Z,10.90
2022-11-29T01:02:15.057Z,11.90
2022-11-29T01:04:44.639Z,12.00
2022-11-29T01:07:14.637Z,11.40
2022-11-29T01:09:44.845Z,10.17
2022-11-29T01:12:14.286Z,12.00
2022-11-29T01:14:44.203Z,10.97
2022-11-29T01:17:19.063Z,10.77
2022-11-29T01:19:50.994Z,10.43
2022-11-29T01:22:18.316Z,10.50
2022-11-29T01:24:48.196Z,10.40
2022-11-29T01:27:18.447Z,10.53
2022-11-29T01:29:48.306Z,9.87
2022-11-29T01:32:18.438Z,9.20
2022-11-29T01:34:51.775Z,8.93
2022-11-29T01:37:20.980Z,9.00
2022-11-29T01:39:50.336Z,9.40
2022-11-29T01:42:20.520Z,9.37
2022-11-29T01:44:49.223Z,9.07
2022-11-29T01:47:19.056Z,7.67
2022-11-29T01:49:49.417Z,7.60
2022-11-29T01:52:28.096Z,7.70
2022-11-29T01:54:56.430Z,8.00
2022-11-29T01:57:22.615Z,7.90
2022-11-29T01:59:50.724Z,7.70
2022-11-29T02:02:31.655Z,8.43
2022-11-29T02:04:58.857Z,7.63
2022-11-29T02:07:25.291Z,7.87
2022-11-29T02:09:51.739Z,7.63
2022-11-29T02:12:39.424Z,7.20
2022-11-29T02:15:18.723Z,6.93
2022-11-29T02:18:06.146Z,6.70
2022-11-29T02:21:03.227Z,7.53
2022-11-29T02:23:53.669Z,7.50
2022-11-29T02:26:48.390Z,7.17
2022-11-29T02:29:59.138Z,7.10
2022-11-29T02:32:53.726Z,6.60
2022-11-29T02:35:37.670Z,7.03
2022-11-29T02:38:20.506Z,6.80
2022-11-29T02:41:14.304Z,6.40
2022-11-29T02:44:27.880Z,6.50
2022-11-29T02:47:15.651Z,5.70
2022-11-29T02:50:33.635Z,6.00
2022-11-29T02:53:12.553Z,6.10
2022-11-29T02:56:08.374Z,5.70
2022-11-29T02:58:51.086Z,6.20
2022-11-29T03:01:31.157Z,6.07
2022-11-29T03:04:26.853Z,6.50
2022-11-29T03:07:24.734Z,5.90
2022-11-29T03:10:05.517Z,5.80
2022-11-29T03:12:31.534Z,6.77
2022-11-29T03:15:18.795Z,6.30
2022-11-29T03:18:30.562Z,5.73
2022-11-29T03:21:08.392Z,5.60
2022-11-29T03:23:44.369Z,6.20
2022-11-29T03:26:18.648Z,5.87
2022-11-29T03:29:06.858Z,5.87
2022-11-29T03:31:46.422Z,5.70
2022-11-29T03:34:29.371Z,6.47
2022-11-29T03:37:00.840Z,6.10
2022-11-29T03:39:37.526Z,6.50
2022-11-29T03:42:08.063Z,5.90
2022-11-29T03:45:04.505Z,6.03
2022-11-29T03:47:38.899Z,6.27
2022-11-29T03:50:12.398Z,6.33
2022-11-29T03:53:04.507Z,6.80
2022-11-29T03:56:20.718Z,6.67
2022-11-29T03:59:27.876Z,6.67
2022-11-29T04:02:31.660Z,7.00
2022-11-29T04:05:27.215Z,6.80
2022-11-29T04:08:06.483Z,6.10
2022-11-29T04:10:48.767Z,6.47
2022-11-29T04:13:45.517Z,6.47
2022-11-29T04:16:33.654Z,5.93
2022-11-29T04:19:08.571Z,6.60
2022-11-29T04:22:16.870Z,7.00
2022-11-29T04:25:16.436Z,6.50
2022-11-29T04:27:57.162Z,6.37
2022-11-29T04:30:35.577Z,6.70
2022-11-29T04:33:23.987Z,6.07
2022-11-29T04:36:12.843Z,6.17
2022-11-29T04:38:59.643Z,7.20
2022-11-29T04:41:35.996Z,6.23
2022-11-29T04:44:10.746Z,7.70
2022-11-29T04:46:59.850Z,6.37
2022-11-29T04:49:58.963Z,6.80
2022-11-29T04:52:50.056Z,6.40
2022-11-29T04:55:39.192Z,6.47
2022-11-29T04:58:16.349Z,6.27
2022-11-29T05:01:14.797Z,6.10
2022-11-29T05:04:13.445Z,6.40
2022-11-29T05:06:59.164Z,6.50
2022-11-29T05:10:19.456Z,6.80
2022-11-29T05:13:07.284Z,6.67
2022-11-29T05:15:56.026Z,6.80
2022-11-29T05:18:56.002Z,6.73
2022-11-29T05:21:46.892Z,6.93
2022-11-29T05:24:29.142Z,6.60
2022-11-29T05:27:11.450Z,7.00
2022-11-29T05:29:53.824Z,6.80
2022-11-29T05:32:38.199Z,6.20
2022-11-29T05:35:27.174Z,6.60
2022-11-29T05:38:04.725Z,6.27
2022-11-29T05:40:42.850Z,6.13
2022-11-29T05:43:37.676Z,7.33
2022-11-29T05:46:17.688Z,6.77
2022-11-29T05:49:02.964Z,6.80
2022-11-29T05:52:10.601Z,6.90
2022-11-29T05:55:10.772Z,7.80
2022-11-29T05:57:49.143Z,7.30
2022-11-29T06:00:19.779Z,8.73
2022-11-29T06:02:59.586Z,8.27
2022-11-29T06:05:42.144Z,8.40
2022-11-29T06:08:25.301Z,8.20
2022-11-29T06:10:56.967Z,8.40
2022-11-29T06:14:06.999Z,7.97
2022-11-29T06:16:42.991Z,8.67
2022-11-29T06:19:28.741Z,9.27
2022-11-29T06:22:40.498Z,9.43
2022-11-29T06:25:26.466Z,10.20
2022-11-29T06:28:13.407Z,10.10
2022-11-29T06:30:52.777Z,10.07
2022-11-29T06:33:24.553Z,10.23
2022-11-29T06:36:09.765Z,10.83
2022-11-29T06:38:45.218Z,10.30
2022-11-29T06:41:23.124Z,11.40
2022-11-29T06:43:49.572Z,11.70
2022-11-29T06:46:45.333Z,11.67
2022-11-29T06:49:28.501Z,11.30
2022-11-29T06:52:14.641Z,12.60
2022-11-29T06:55:14.778Z,12.27
2022-11-29T06:58:02.691Z,11.00
2022-11-29T07:00:58.540Z,12.20
2022-11-29T07:03:30.783Z,10.67
2022-11-29T07:05:57.574Z,11.20
2022-11-29T07:08:28.056Z,11.83
2022-11-29T07:10:58.875Z,11.63
2022-11-29T07:13:25.139Z,9.70
2022-11-29T07:15:57.218Z,10.53
2022-11-29T07:18:46.260Z,9.73
2022-11-29T07:21:18.249Z,10.10
2022-11-29T07:23:54.910Z,9.03
2022-11-29T07:26:49.419Z,10.00
2022-11-29T07:29:51.934Z,10.30
2022-11-29T07:32:40.594Z,10.60
2022-11-29T07:35:21.490Z,9.03
2022-11-29T07:38:16.732Z,8.57
2022-11-29T07:41:10.489Z,8.50
2022-11-29T07:43:46.083Z,8.17
2022-11-29T07:46:16.441Z,9.43
2022-11-29T07:48:47.179Z,9.43
2022-11-29T07:51:21.813Z,8.77
2022-11-29T07:53:51.871Z,9.73
2022-11-29T07:56:22.161Z,9.90
2022-11-29T07:58:52.172Z,9.53
2022-11-29T08:01:22.506Z,9.50
2022-11-29T08:03:52.400Z,10.13
2022-11-29T08:06:24.832Z,8.97
2022-11-29T08:09:00.210Z,9.77
2022-11-29T08:11:30.536Z,8.40
2022-11-29T08:14:01.764Z,9.03
2022-11-29T08:16:32.264Z,8.40
2022-11-29T08:19:02.774Z,8.30
2022-11-29T08:21:33.233Z,8.47
2022-11-29T08:24:03.582Z,7.70
2022-11-29T08:26:36.355Z,8.80
2022-11-29T08:29:06.184Z,8.70
2022-11-29T08:31:36.614Z,8.90
2022-11-29T08:34:07.211Z,9.00
2022-11-29T08:36:38.070Z,9.53
2022-11-29T08:39:09.736Z,10.00
2022-11-29T08:41:40.292Z,9.47
2022-11-29T08:44:12.368Z,9.27
2022-11-29T08:47:01.592Z,9.70
2022-11-29T08:49:31.407Z,11.30
2022-11-29T08:52:20.064Z,11.67
2022-11-29T08:54:50.441Z,11.30
2022-11-29T08:57:40.818Z,9.93
2022-11-29T09:00:09.214Z,11.00
2022-11-29T09:02:37.918Z,10.90
2022-11-29T09:05:07.875Z,10.20
2022-11-29T09:07:36.883Z,10.77
2022-11-29T09:10:07.608Z,10.53
2022-11-29T09:12:36.729Z,10.80
2022-11-29T09:15:07.406Z,10.10
2022-11-29T09:17:34.624Z,11.57
2022-11-29T09:20:05.398Z,10.33
2022-11-29T09:22:34.604Z,11.57
2022-11-29T09:25:04.609Z,10.80
2022-11-29T09:27:33.758Z,13.10
2022-11-29T09:30:03.710Z,12.83
2022-11-29T09:32:37.019Z,11.77
2022-11-29T09:35:06.464Z,11.70
2022-11-29T09:37:36.343Z,12.60
2022-11-29T09:40:05.906Z,12.60
2022-11-29T09:42:53.511Z,12.10
2022-11-29T09:45:26.550Z,11.83
2022-11-29T09:48:22.709Z,13.17
2022-11-29T09:50:54.065Z,11.20
2022-11-29T09:53:24.315Z,12.60
2022-11-29T09:56:15.880Z,12.57
2022-11-29T09:58:51.051Z,14.07
2022-11-29T10:01:27.192Z,12.80
2022-11-29T10:04:03.498Z,15.63
2022-11-29T10:06:40.550Z,13.60
2022-11-29T10:09:19.318Z,12.27
2022-11-29T10:12:23.192Z,13.80
2022-11-29T10:15:13.094Z,12.00
2022-11-29T10:18:05.112Z,14.87
2022-11-29T10:20:42.503Z,13.13
2022-11-29T10:23:26.155Z,13.90
2022-11-29T10:25:57.265Z,15.30
2022-11-29T10:28:32.818Z,13.90
2022-11-29T10:31:36.388Z,14.20
2022-11-29T10:34:14.188Z,14.20
2022-11-29T10:36:58.952Z,15.40
2022-11-29T10:39:46.617Z,15.47
2022-11-29T10:42:40.675Z,16.93
2022-11-29T10:45:27.783Z,16.40
2022-11-29T10:48:01.876Z,17.40
2022-11-29T10:50:36.058Z,16.87
2022-11-29T10:53:14.727Z,16.67
2022-11-29T10:55:54.870Z,16.27
2022-11-29T10:58:30.513Z,16.30
2022-11-29T11:01:06.180Z,16.90
2022-11-29T11:03:41.512Z,18.93
2022-11-29T11:06:19.063Z,17.33
2022-11-29T11:08:54.883Z,17.27
2022-11-29T11:11:32.009Z,15.33
2022-11-29T11:14:11.931Z,16.87
2022-11-29T11:16:42.259Z,16.10
2022-11-29T11:19:28.428Z,17.07
2022-11-29T11:22:00.929Z,16.00
2022-11-29T11:24:32.672Z,15.67
2022-11-29T11:26:59.789Z,16.60
2022-11-29T11:29:35.679Z,17.57
2022-11-29T11:32:02.253Z,16.37
2022-11-29T11:34:33.404Z,16.60
2022-11-29T11:37:24.508Z,17.17
2022-11-29T11:39:57.039Z,16.73
2022-11-29T11:42:37.221Z,16.20
2022-11-29T11:45:10.260Z,17.70
2022-11-29T11:47:41.952Z,17.20
2022-11-29T11:50:24.776Z,16.30
2022-11-29T11:53:03.755Z,15.40
2022-11-29T11:55:39.258Z,16.27
2022-11-29T11:58:12.288Z,15.03
2022-11-29T12:03:56.216Z,16.17
2022-11-29T12:06:48.382Z,16.60
2022-11-29T12:09:26.960Z,15.33
2022-11-29T12:12:10.251Z,16.80
2022-11-29T12:15:00.575Z,15.93
2022-11-29T12:17:36.645Z,16.40
2022-11-29T12:20:11.366Z,16.27
2022-11-29T12:23:07.232Z,16.30
2022-11-29T12:25:57.488Z,15.37
2022-11-29T12:28:31.354Z,15.13
2022-11-29T12:31:12.067Z,15.50
2022-11-29T12:33:54.729Z,15.10
2022-11-29T12:37:05.034Z,15.40
2022-11-29T12:39:56.525Z,15.00
2022-11-29T12:42:50.032Z,15.63
2022-11-29T12:45:33.086Z,17.07
2022-11-29T12:48:05.960Z,16.90
2022-11-29T12:50:39.951Z,16.67
2022-11-29T12:53:13.928Z,15.10
2022-11-29T12:56:05.452Z,18.20
2022-11-29T12:58:46.217Z,16.30
2022-11-29T13:01:16.613Z,15.70
2022-11-29T13:03:58.392Z,15.40
2022-11-29T13:07:10.263Z,15.17
2022-11-29T13:10:01.863Z,16.60
2022-11-29T13:12:45.763Z,15.40
2022-11-29T13:15:29.409Z,15.47
2022-11-29T13:18:03.853Z,16.40
2022-11-29T13:20:39.534Z,16.97
2022-11-29T13:23:46.138Z,16.27
2022-11-29T13:26:24.172Z,16.37
2022-11-29T13:28:52.666Z,15.53
2022-11-29T13:31:24.925Z,16.00
2022-11-29T13:34:19.545Z,15.33
2022-11-29T13:36:51.673Z,13.20
2022-11-29T13:39:58.667Z,14.93
2022-11-29T13:43:04.490Z,14.40
2022-11-29T13:45:41.909Z,14.70
2022-11-29T13:48:33.083Z,15.23
2022-11-29T13:51:27.448Z,15.87
2022-11-29T13:53:54.637Z,14.43
2022-11-29T13:56:28.898Z,14.80
2022-11-29T13:59:11.833Z,14.43
2022-11-29T14:01:47.050Z,15.00
2022-11-29T14:04:24.322Z,15.10
2022-11-29T14:07:21.819Z,14.53
2022-11-29T14:09:57.897Z,14.67
2022-11-29T14:12:41.313Z,14.23
2022-11-29T14:15:22.199Z,14.53
2022-11-29T14:17:52.533Z,13.90
2022-11-29T14:20:22.631Z,12.53
2022-11-29T14:23:05.040Z,13.90
2022-11-29T14:25:52.241Z,13.50
2022-11-29T14:28:23.562Z,13.90
2022-11-29T14:31:02.946Z,12.57
2022-11-29T14:34:06.268Z,14.50
2022-11-29T14:36:46.095Z,12.10
2022-11-29T14:39:30.073Z,13.10
2022-11-29T14:42:18.027Z,13.30
2022-11-29T14:44:53.021Z,13.00
2022-11-29T14:47:32.491Z,12.97
2022-11-29T14:50:06.932Z,13.10
2022-11-29T14:52:39.499Z,13.87
2022-11-29T14:55:16.058Z,13.90
2022-11-29T14:57:46.574Z,14.00
2022-11-29T15:00:27.817Z,15.47
2022-11-29T15:03:00.963Z,15.47
2022-11-29T15:05:33.327Z,15.37
2022-11-29T15:08:18.161Z,14.53
2022-11-29T15:11:00.336Z,15.87
2022-11-29T15:13:34.921Z,14.70
2022-11-29T15:16:27.967Z,14.40
2022-11-29T15:19:12.574Z,13.77
2022-11-29T15:21:54.611Z,13.67
2022-11-29T15:24:28.744Z,13.67
2022-11-29T15:27:03.592Z,15.20
2022-11-29T15:29:33.362Z,14.63
2022-11-29T15:32:04.958Z,14.40
2022-11-29T15:34:40.124Z,13.80
2022-11-29T15:37:30.212Z,14.27
2022-11-29T15:40:03.104Z,14.00
2022-11-29T15:42:59.349Z,14.67
2022-11-29T15:45:39.648Z,13.80
2022-11-29T15:48:21.859Z,14.70
2022-11-29T15:51:15.712Z,16.33
2022-11-29T15:54:11.717Z,13.90
2022-11-29T15:56:51.367Z,14.50
2022-11-29T15:59:40.634Z,15.07
2022-11-29T16:02:21.462Z,14.17
2022-11-29T16:04:55.401Z,14.70
2022-11-29T16:07:31.407Z,13.87
2022-11-29T16:10:16.452Z,14.40
2022-11-29T16:12:55.672Z,14.60
2022-11-29T16:15:27.152Z,14.30
2022-11-29T16:17:53.327Z,14.73
2022-11-29T16:20:24.364Z,14.40
2022-11-29T16:23:12.898Z,14.90
2022-11-29T16:26:04.952Z,15.07
2022-11-29T16:28:34.991Z,14.80
2022-11-29T16:31:05.511Z,14.10
2022-11-29T16:33:37.074Z,14.20
2022-11-29T16:36:25.852Z,13.80
2022-11-29T16:39:00.580Z,12.20
2022-11-29T16:41:36.763Z,13.63
2022-11-29T16:44:40.131Z,13.47
2022-11-29T16:47:15.645Z,12.37
2022-11-29T16:50:07.156Z,13.77
2022-11-29T16:52:37.895Z,14.87
2022-11-29T16:55:10.744Z,14.07
2022-11-29T16:57:40.586Z,16.03
2022-11-29T17:00:36.711Z,13.93
2022-11-29T17:03:08.533Z,14.23
2022-11-29T17:05:34.641Z,14.70
2022-11-29T17:08:02.079Z,13.63
2022-11-29T17:10:33.624Z,13.93
2022-11-29T17:13:03.770Z,12.70
2022-11-29T17:15:29.984Z,13.40
2022-11-29T17:17:56.039Z,12.70
2022-11-29T17:20:28.104Z,12.80
2022-11-29T17:22:54.192Z,12.10
2022-11-29T17:25:20.217Z,12.17
2022-11-29T17:27:46.259Z,11.83
2022-11-29T17:30:12.823Z,10.57
2022-11-29T17:32:39.966Z,11.67
2022-11-29T17:35:09.984Z,12.60
2022-11-29T17:37:39.757Z,11.70
2022-11-29T17:40:12.846Z,13.00
2022-11-29T17:42:40.949Z,12.43
2022-11-29T17:45:10.618Z,10.80
2022-11-29T17:47:40.355Z,12.47
2022-11-29T17:50:13.159Z,13.30
2022-11-29T17:52:43.167Z,13.40
2022-11-29T17:55:12.912Z,12.67
2022-11-29T17:57:42.772Z,13.10
2022-11-29T18:00:14.651Z,12.37
2022-11-29T18:02:42.539Z,14.40
2022-11-29T18:05:12.295Z,14.97
2022-11-29T18:07:57.122Z,14.73
2022-11-29T18:10:24.093Z,13.67
2022-11-29T18:12:50.132Z,13.70
2022-11-29T18:15:16.797Z,14.67
2022-11-29T18:17:47.060Z,16.30
2022-11-29T18:20:16.958Z,13.67
2022-11-29T18:22:46.350Z,14.03
2022-11-29T18:25:38.190Z,13.73
2022-11-29T18:28:02.130Z,16.17
2022-11-29T18:30:28.256Z,15.60
2022-11-29T18:32:56.055Z,13.93
2022-11-29T18:35:27.348Z,14.53
2022-11-29T18:40:41.732Z,14.67
2022-11-29T18:43:15.081Z,13.20
2022-11-29T18:45:41.237Z,14.70
2022-11-29T18:48:07.297Z,15.93
2022-11-29T18:50:33.434Z,15.70
2022-11-29T18:53:04.024Z,14.53
2022-11-29T18:55:30.228Z,16.93
2022-11-29T18:57:56.249Z,17.47
2022-11-29T19:00:22.513Z,17.00
2022-11-29T19:02:56.200Z,15.30
2022-11-29T19:05:22.286Z,15.60
2022-11-29T19:07:48.480Z,16.03
2022-11-29T19:10:14.646Z,16.10
2022-11-29T19:12:42.610Z,16.17
2022-11-29T19:15:12.872Z,17.60
2022-11-29T19:17:43.516Z,17.90
2022-11-29T19:20:11.964Z,16.73
2022-11-29T19:22:47.053Z,17.40
2022-11-29T19:25:14.930Z,17.23
2022-11-29T19:27:46.400Z,17.80
2022-11-29T19:30:15.475Z,17.97
2022-11-29T19:32:46.495Z,17.53
2022-11-29T19:35:15.125Z,18.27
2022-11-29T19:37:42.369Z,19.70
2022-11-29T19:40:12.614Z,18.40
2022-11-29T19:42:42.523Z,18.37
2022-11-29T19:45:18.004Z,18.97
2022-11-29T19:47:44.412Z,18.10
2022-11-29T19:50:19.452Z,19.33
2022-11-29T19:52:49.422Z,17.53
2022-11-29T19:55:18.689Z,19.70
2022-11-29T19:57:48.517Z,19.27
2022-11-29T20:00:18.578Z,18.50
2022-11-29T20:02:47.194Z,19.73
2022-11-29T20:05:16.876Z,20.00
2022-11-29T20:07:49.380Z,19.83
2022-11-29T20:10:19.818Z,18.87
2022-11-29T20:12:48.325Z,20.50
2022-11-29T20:15:18.214Z,20.10
2022-11-29T20:17:53.023Z,19.23
2022-11-29T20:20:19.803Z,19.00
2022-11-29T20:22:51.483Z,19.57
2022-11-29T20:25:18.238Z,19.47
2022-11-29T20:27:48.333Z,17.50
2022-11-29T20:30:17.748Z,19.00
2022-11-29T20:32:47.047Z,19.20
2022-11-29T20:35:19.211Z,19.80
2022-11-29T20:38:23.607Z,22.07
2022-11-29T20:41:02.922Z,19.00
2022-11-29T20:43:38.902Z,19.20
2022-11-29T20:46:05.876Z,17.87
2022-11-29T20:48:38.704Z,17.77
2022-11-29T20:51:09.998Z,16.17
2022-11-29T20:53:42.130Z,17.50
2022-11-29T20:56:09.596Z,16.43
2022-11-29T20:58:39.887Z,16.53
2022-11-29T21:01:09.943Z,16.47
2022-11-29T21:03:41.671Z,16.87
2022-11-29T21:06:07.775Z,17.30
2022-11-29T21:08:34.341Z,17.00
2022-11-29T21:11:05.239Z,18.80
2022-11-29T21:13:32.094Z,16.80
2022-11-29T21:15:58.684Z,17.57
2022-11-29T21:18:26.863Z,17.83
2022-11-29T21:21:04.416Z,20.27
2022-11-29T21:23:49.129Z,18.07
2022-11-29T21:26:20.367Z,18.60
2022-11-29T21:28:53.898Z,18.43
2022-11-29T21:31:20.223Z,17.50
2022-11-29T21:33:46.725Z,16.73
2022-11-29T21:36:12.963Z,16.87
2022-11-29T21:38:39.065Z,16.90
2022-11-29T21:41:05.303Z,16.67
2022-11-29T21:44:04.279Z,15.87
2022-11-29T21:46:17.553Z,16.97
2022-11-29T21:48:44.017Z,16.70
2022-11-29T21:51:10.750Z,15.50
2022-11-29T21:53:38.307Z,16.00
2022-11-29T21:56:06.783Z,15.90
2022-11-29T21:58:34.460Z,15.40
2022-11-29T22:01:07.750Z,19.47
2022-11-29T22:03:33.926Z,16.43
2022-11-29T22:06:05.119Z,15.83
2022-11-29T22:08:38.722Z,15.33
2022-11-29T22:11:10.003Z,16.60
2022-11-29T22:13:57.031Z,16.03
2022-11-29T22:16:23.305Z,15.20
2022-11-29T22:18:49.433Z,15.50
2022-11-29T22:21:15.486Z,15.57
2022-11-29T22:23:41.525Z,17.17
2022-11-29T22:26:07.796Z,16.03
2022-11-29T22:28:34.573Z,16.00
2022-11-29T22:31:11.066Z,15.50
2022-11-29T22:33:37.671Z,16.73
2022-11-29T22:36:08.007Z,16.60
2022-11-29T22:38:34.692Z,16.03
2022-11-29T22:41:03.164Z,15.70
2022-11-29T22:43:30.537Z,17.40
2022-11-29T22:46:17.623Z,15.70
2022-11-29T22:48:44.973Z,17.17
2022-11-29T22:51:13.403Z,16.20
2022-11-29T22:53:41.215Z,15.77
2022-11-29T22:56:09.106Z,17.73
2022-11-29T22:58:36.052Z,16.60
2022-11-29T23:01:07.451Z,16.27
2022-11-29T23:03:38.399Z,15.87
2022-11-29T23:06:12.533Z,16.57
2022-11-29T23:08:39.635Z,16.33
2022-11-29T23:11:08.389Z,16.80
2022-11-29T23:13:36.298Z,16.43
2022-11-29T23:16:03.889Z,15.30
2022-11-29T23:18:30.279Z,18.20
2022-11-29T23:21:10.877Z,16.90
2022-11-29T23:23:37.159Z,17.20
2022-11-29T23:26:04.735Z,17.03
2022-11-29T23:28:31.074Z,16.43
2022-11-29T23:30:58.590Z,15.63
2022-11-29T23:33:25.458Z,15.40
2022-11-29T23:35:59.104Z,15.13
2022-11-29T23:38:25.121Z,14.97
2022-11-29T23:40:51.120Z,16.80
2022-11-29T23:43:17.192Z,16.43
2022-11-29T23:45:43.338Z,13.53
2022-11-29T23:48:09.447Z,16.53
2022-11-29T23:50:35.493Z,18.57
2022-11-29T23:53:01.559Z,16.80
2022-11-29T23:55:27.714Z,15.87
2022-11-29T23:57:53.795Z,15.43
